createdAt,value
2022-08-24T00:00:08.588Z,43.88
2022-08-24T00:02:35.257Z,43.85
2022-08-24T00:05:02.034Z,42.97
2022-08-24T00:07:29.522Z,44.16
2022-08-24T00:09:56.240Z,43.83
2022-08-24T00:12:23.293Z,43.59
2022-08-24T00:14:50.220Z,43.66
2022-08-24T00:17:17.394Z,43.81
2022-08-24T00:19:45.983Z,43.50
2022-08-24T00:22:13.304Z,43.05
2022-08-24T00:24:40.029Z,42.98
2022-08-24T00:27:07.520Z,43.33
2022-08-24T00:29:34.414Z,43.21
2022-08-24T00:32:01.127Z,43.28
2022-08-24T00:34:27.857Z,43.48
2022-08-24T00:36:54.689Z,43.48
2022-08-24T00:39:21.870Z,43.60
2022-08-24T00:41:50.228Z,43.52
2022-08-24T00:44:17.858Z,43.53
2022-08-24T00:46:49.949Z,44.68
2022-08-24T00:49:25.977Z,45.10
2022-08-24T00:52:14.398Z,44.79
2022-08-24T00:54:47.978Z,44.45
2022-08-24T00:57:16.885Z,44.62
2022-08-24T00:59:46.459Z,44.53
2022-08-24T01:02:21.806Z,44.24
2022-08-24T01:04:54.552Z,44.57
2022-08-24T01:07:23.142Z,44.94
2022-08-24T01:09:51.935Z,45.92
2022-08-24T01:12:19.001Z,45.76
2022-08-24T01:14:45.897Z,45.55
2022-08-24T01:17:33.923Z,46.03
2022-08-24T01:20:06.188Z,46.37
2022-08-24T01:22:54.598Z,46.10
2022-08-24T01:25:22.460Z,45.63
2022-08-24T01:27:49.945Z,45.50
2022-08-24T01:30:17.415Z,45.51
2022-08-24T01:32:55.824Z,45.31
2022-08-24T01:35:22.537Z,44.94
2022-08-24T01:37:50.144Z,45.27
2022-08-24T01:40:17.918Z,45.00
2022-08-24T01:42:52.458Z,45.22
2022-08-24T01:45:20.277Z,45.23
2022-08-24T01:47:46.771Z,45.20
2022-08-24T01:50:14.278Z,44.88
2022-08-24T01:53:04.007Z,44.75
2022-08-24T01:55:30.124Z,44.71
2022-08-24T01:57:57.006Z,44.90
2022-08-24T02:00:24.030Z,44.93
2022-08-24T02:02:50.662Z,44.92
2022-08-24T02:05:17.875Z,44.57
2022-08-24T02:07:45.861Z,45.06
2022-08-24T02:10:13.999Z,44.56
2022-08-24T02:12:42.325Z,44.44
2022-08-24T02:15:10.730Z,44.59
2022-08-24T02:17:37.958Z,44.38
2022-08-24T02:20:06.558Z,44.30
2022-08-24T02:22:33.232Z,44.27
2022-08-24T02:24:59.830Z,44.37
2022-08-24T02:27:26.584Z,44.23
2022-08-24T02:29:53.433Z,43.61
2022-08-24T02:32:20.528Z,43.48
2022-08-24T02:34:47.171Z,43.32
2022-08-24T02:37:14.185Z,43.54
2022-08-24T02:39:41.028Z,43.77
2022-08-24T02:42:07.806Z,43.43
2022-08-24T02:44:35.133Z,43.16
2022-08-24T02:47:01.638Z,43.18
2022-08-24T02:49:28.354Z,43.08
2022-08-24T02:51:55.493Z,42.89
2022-08-24T02:54:22.382Z,42.95
2022-08-24T02:56:49.385Z,42.82
2022-08-24T02:59:17.146Z,42.84
2022-08-24T03:01:44.890Z,43.01
2022-08-24T03:04:12.079Z,42.97
2022-08-24T03:06:38.939Z,43.43
2022-08-24T03:09:05.791Z,43.68
2022-08-24T03:11:32.419Z,43.61
2022-08-24T03:13:59.473Z,44.04
2022-08-24T03:16:27.343Z,43.80
2022-08-24T03:18:54.136Z,43.93
2022-08-24T03:21:21.100Z,43.79
2022-08-24T03:23:47.951Z,44.14
2022-08-24T03:26:15.048Z,43.84
2022-08-24T03:28:41.838Z,44.72
2022-08-24T03:31:11.708Z,44.61
2022-08-24T03:33:38.375Z,44.52
2022-08-24T03:36:05.094Z,44.30
2022-08-24T03:38:31.705Z,44.53
2022-08-24T03:40:58.209Z,45.41
2022-08-24T03:43:43.164Z,45.52
2022-08-24T03:46:12.362Z,47.61
2022-08-24T03:48:40.519Z,47.11
2022-08-24T03:51:07.974Z,47.76
2022-08-24T03:53:34.645Z,47.77
2022-08-24T03:56:07.095Z,47.66
2022-08-24T03:58:39.550Z,47.32
2022-08-24T04:01:06.359Z,48.41
2022-08-24T04:03:41.633Z,47.93
2022-08-24T04:06:09.232Z,47.98
2022-08-24T04:08:39.887Z,47.93
2022-08-24T04:11:11.322Z,47.83
2022-08-24T04:13:37.867Z,47.59
2022-08-24T04:16:09.128Z,47.84
2022-08-24T04:18:36.385Z,47.18
2022-08-24T04:21:03.324Z,47.08
2022-08-24T04:23:47.303Z,47.03
2022-08-24T04:26:15.727Z,47.39
2022-08-24T04:28:42.364Z,47.67
2022-08-24T04:31:09.103Z,47.78
2022-08-24T04:33:36.259Z,47.83
2022-08-24T04:36:07.239Z,47.86
2022-08-24T04:38:34.149Z,47.85
2022-08-24T04:41:00.719Z,47.73
2022-08-24T04:43:27.233Z,47.88
2022-08-24T04:45:53.926Z,47.21
2022-08-24T04:48:20.715Z,46.88
2022-08-24T04:50:47.308Z,47.14
2022-08-24T04:53:14.330Z,47.62
2022-08-24T04:55:49.564Z,47.94
2022-08-24T04:58:17.744Z,47.19
2022-08-24T05:00:44.870Z,47.42
2022-08-24T05:03:11.995Z,46.97
2022-08-24T05:05:44.997Z,46.82
2022-08-24T05:08:13.254Z,46.75
2022-08-24T05:10:42.951Z,46.63
2022-08-24T05:13:09.713Z,46.21
2022-08-24T05:15:38.064Z,46.40
2022-08-24T05:18:04.874Z,46.31
2022-08-24T05:20:31.404Z,46.25
2022-08-24T05:23:02.458Z,46.18
2022-08-24T05:25:30.949Z,46.06
2022-08-24T05:27:58.189Z,46.17
2022-08-24T05:30:24.750Z,45.46
2022-08-24T05:32:51.267Z,45.50
2022-08-24T05:35:18.312Z,45.10
2022-08-24T05:37:45.246Z,45.34
2022-08-24T05:40:14.346Z,44.86
2022-08-24T05:42:40.998Z,44.52
2022-08-24T05:45:08.164Z,44.68
2022-08-24T05:47:35.172Z,44.09
2022-08-24T05:50:02.151Z,44.10
2022-08-24T05:52:29.076Z,43.70
2022-08-24T05:54:57.959Z,43.36
2022-08-24T05:57:25.888Z,43.18
2022-08-24T05:59:52.729Z,43.44
2022-08-24T06:02:19.992Z,42.91
2022-08-24T06:04:46.786Z,42.58
2022-08-24T06:07:13.807Z,42.08
2022-08-24T06:09:41.191Z,41.35
2022-08-24T06:12:08.684Z,41.05
2022-08-24T06:14:36.188Z,40.26
2022-08-24T06:17:04.867Z,39.97
2022-08-24T06:19:32.564Z,40.23
2022-08-24T06:21:59.549Z,39.51
2022-08-24T06:24:45.354Z,39.02
2022-08-24T06:27:21.931Z,38.49
2022-08-24T06:29:53.661Z,38.49
2022-08-24T06:32:20.898Z,37.78
2022-08-24T06:34:47.834Z,37.67
2022-08-24T06:37:14.996Z,36.58
2022-08-24T06:39:41.871Z,36.12
2022-08-24T06:42:08.386Z,35.38
2022-08-24T06:44:35.040Z,35.17
2022-08-24T06:47:01.672Z,34.76
2022-08-24T06:49:28.292Z,34.60
2022-08-24T06:51:54.829Z,34.86
2022-08-24T06:54:21.354Z,34.76
2022-08-24T06:56:47.930Z,34.45
2022-08-24T06:59:14.522Z,34.45
2022-08-24T07:01:41.211Z,34.84
2022-08-24T07:04:07.789Z,35.07
2022-08-24T07:06:35.431Z,35.54
2022-08-24T07:09:02.419Z,36.03
2022-08-24T07:11:28.937Z,35.00
2022-08-24T07:13:55.639Z,34.74
2022-08-24T07:16:22.759Z,34.34
2022-08-24T07:18:50.559Z,35.04
2022-08-24T07:21:19.515Z,34.66
2022-08-24T07:23:50.057Z,34.58
2022-08-24T07:26:22.641Z,34.08
2022-08-24T07:28:54.266Z,33.43
2022-08-24T07:31:21.358Z,33.16
2022-08-24T07:33:48.224Z,32.52
2022-08-24T07:36:22.073Z,32.00
2022-08-24T07:38:49.121Z,31.33
2022-08-24T07:41:38.106Z,31.02
2022-08-24T07:44:02.268Z,30.55
2022-08-24T07:46:28.852Z,30.25
2022-08-24T07:49:05.105Z,30.05
2022-08-24T07:51:40.139Z,29.37
2022-08-24T07:54:13.059Z,30.61
2022-08-24T07:56:40.630Z,30.44
2022-08-24T07:59:11.062Z,29.15
2022-08-24T08:01:40.075Z,29.97
2022-08-24T08:04:06.703Z,29.32
2022-08-24T08:06:33.325Z,29.02
2022-08-24T08:09:00.196Z,28.37
2022-08-24T08:11:26.858Z,28.03
2022-08-24T08:13:54.287Z,29.25
2022-08-24T08:16:21.798Z,27.57
2022-08-24T08:18:52.356Z,27.64
2022-08-24T08:21:51.090Z,27.75
2022-08-24T08:24:21.145Z,27.50
2022-08-24T08:26:50.633Z,26.39
2022-08-24T08:29:19.027Z,26.74
2022-08-24T08:31:46.219Z,25.90
2022-08-24T08:34:13.127Z,25.28
2022-08-24T08:36:41.272Z,24.90
2022-08-24T08:39:09.503Z,26.72
2022-08-24T08:42:14.962Z,27.91
2022-08-24T08:44:48.768Z,27.51
2022-08-24T08:47:33.769Z,26.77
2022-08-24T08:50:27.183Z,25.58
2022-08-24T08:53:15.539Z,24.84
2022-08-24T08:55:57.401Z,23.61
2022-08-24T08:59:18.523Z,22.52
2022-08-24T09:02:00.583Z,21.79
2022-08-24T09:05:09.348Z,21.66
2022-08-24T09:07:48.207Z,21.05
2022-08-24T09:10:41.180Z,20.69
2022-08-24T09:13:17.374Z,19.08
2022-08-24T09:16:09.704Z,21.26
2022-08-24T09:19:14.733Z,20.62
2022-08-24T09:22:06.172Z,19.73
2022-08-24T09:24:42.689Z,19.28
2022-08-24T09:27:27.121Z,18.32
2022-08-24T09:30:13.692Z,17.99
2022-08-24T09:33:06.566Z,15.53
2022-08-24T09:35:41.121Z,12.42
2022-08-24T09:38:17.802Z,9.34
2022-08-24T09:40:55.282Z,8.34
2022-08-24T09:43:40.072Z,6.66
2022-08-24T09:46:34.754Z,5.88
2022-08-24T09:49:39.445Z,4.15
2022-08-24T09:52:36.990Z,4.26
2022-08-24T09:55:35.938Z,3.37
2022-08-24T09:58:17.847Z,3.73
2022-08-24T10:00:48.029Z,3.47
2022-08-24T10:03:23.845Z,4.01
2022-08-24T10:06:23.302Z,3.90
2022-08-24T10:09:20.595Z,3.78
2022-08-24T10:12:19.898Z,3.08
2022-08-24T10:15:02.171Z,3.13
2022-08-24T10:17:58.245Z,2.71
2022-08-24T10:20:43.029Z,2.35
2022-08-24T10:23:30.378Z,2.24
2022-08-24T10:26:04.424Z,2.48
2022-08-24T10:28:55.392Z,2.29
2022-08-24T10:31:43.606Z,2.74
2022-08-24T10:34:23.888Z,2.57
2022-08-24T10:36:56.548Z,1.88
2022-08-24T10:39:43.309Z,2.47
2022-08-24T10:42:48.438Z,2.34
2022-08-24T10:45:35.315Z,1.71
2022-08-24T10:48:36.799Z,1.82
2022-08-24T10:51:03.325Z,2.23
2022-08-24T10:53:32.209Z,2.46
2022-08-24T10:56:12.169Z,2.58
2022-08-24T10:58:52.394Z,2.82
2022-08-24T11:01:26.811Z,3.02
2022-08-24T11:03:59.216Z,2.84
2022-08-24T11:06:30.829Z,2.88
2022-08-24T11:08:59.683Z,2.88
2022-08-24T11:11:40.480Z,2.53
2022-08-24T11:14:29.024Z,1.74
2022-08-24T11:17:14.775Z,2.16
2022-08-24T11:19:42.511Z,1.82
2022-08-24T11:23:00.018Z,2.73
2022-08-24T11:25:30.009Z,2.44
2022-08-24T11:28:21.138Z,3.31
2022-08-24T11:30:48.496Z,3.28
2022-08-24T11:33:30.410Z,3.13
2022-08-24T11:35:57.930Z,3.29
2022-08-24T11:38:29.059Z,2.81
2022-08-24T11:41:12.883Z,3.31
2022-08-24T11:44:24.959Z,4.01
2022-08-24T11:47:32.746Z,4.02
2022-08-24T11:50:27.186Z,3.25
2022-08-24T11:53:29.180Z,3.36
2022-08-24T11:56:21.452Z,3.95
2022-08-24T11:59:07.868Z,5.10
2022-08-24T12:01:42.892Z,4.64
2022-08-24T12:04:30.427Z,3.96
2022-08-24T12:07:01.770Z,3.09
2022-08-24T12:09:40.015Z,3.41
2022-08-24T12:12:14.579Z,5.15
2022-08-24T12:15:02.173Z,3.89
2022-08-24T12:17:44.726Z,3.79
2022-08-24T12:20:27.957Z,6.67
2022-08-24T12:22:59.184Z,9.49
2022-08-24T12:25:45.808Z,11.93
2022-08-24T12:28:14.972Z,12.94
2022-08-24T12:30:41.580Z,15.22
2022-08-24T12:33:12.073Z,15.52
2022-08-24T12:35:38.568Z,16.06
2022-08-24T12:38:26.640Z,16.56
2022-08-24T12:41:14.646Z,16.98
2022-08-24T12:43:50.008Z,16.73
2022-08-24T12:46:21.862Z,17.87
2022-08-24T12:48:56.436Z,19.30
2022-08-24T12:51:29.231Z,19.67
2022-08-24T12:54:03.696Z,19.19
2022-08-24T12:56:48.479Z,19.56
2022-08-24T12:59:21.718Z,20.39
2022-08-24T13:02:01.623Z,19.20
2022-08-24T13:04:28.248Z,18.97
2022-08-24T13:07:09.840Z,18.95
2022-08-24T13:09:42.894Z,18.70
2022-08-24T13:12:44.086Z,18.74
2022-08-24T13:15:23.380Z,20.05
2022-08-24T13:17:57.758Z,19.46
2022-08-24T13:20:34.402Z,19.05
2022-08-24T13:23:13.142Z,18.57
2022-08-24T13:25:51.755Z,18.91
2022-08-24T13:28:21.476Z,18.87
2022-08-24T13:30:54.008Z,18.51
2022-08-24T13:33:34.901Z,18.42
2022-08-24T13:36:04.298Z,18.85
2022-08-24T13:38:33.835Z,18.31
2022-08-24T13:41:29.294Z,18.05
2022-08-24T13:43:55.823Z,18.23
2022-08-24T13:46:42.065Z,18.47
2022-08-24T13:49:15.823Z,17.68
2022-08-24T13:51:46.029Z,17.77
2022-08-24T13:54:25.162Z,18.01
2022-08-24T13:57:03.138Z,17.96
2022-08-24T13:59:52.913Z,18.24
2022-08-24T14:02:28.455Z,17.34
2022-08-24T14:05:07.837Z,17.70
2022-08-24T14:07:56.592Z,17.87
2022-08-24T14:10:29.909Z,17.63
2022-08-24T14:13:05.114Z,17.68
2022-08-24T14:16:11.665Z,17.59
2022-08-24T14:18:59.039Z,17.51
2022-08-24T14:21:40.195Z,18.08
2022-08-24T14:24:24.205Z,17.66
2022-08-24T14:27:04.851Z,17.06
2022-08-24T14:29:34.237Z,17.05
2022-08-24T14:32:20.692Z,16.80
2022-08-24T14:35:14.364Z,18.54
2022-08-24T14:38:12.634Z,18.55
2022-08-24T14:40:51.594Z,18.57
2022-08-24T14:43:41.210Z,18.08
2022-08-24T14:46:17.027Z,18.42
2022-08-24T14:49:25.755Z,18.41
2022-08-24T14:51:54.226Z,19.10
2022-08-24T14:54:49.271Z,18.78
2022-08-24T14:57:27.943Z,18.14
2022-08-24T15:00:34.925Z,18.16
2022-08-24T15:03:12.025Z,18.99
2022-08-24T15:06:25.099Z,18.23
2022-08-24T15:08:47.045Z,18.50
2022-08-24T15:11:17.777Z,17.76
2022-08-24T15:13:49.067Z,17.85
2022-08-24T15:16:24.344Z,18.42
2022-08-24T15:18:58.829Z,18.10
2022-08-24T15:21:29.826Z,18.01
2022-08-24T15:24:10.597Z,18.13
2022-08-24T15:26:52.850Z,17.95
2022-08-24T15:29:22.706Z,18.24
2022-08-24T15:32:16.001Z,17.85
2022-08-24T15:34:49.801Z,17.80
2022-08-24T15:37:26.601Z,17.74
2022-08-24T15:39:54.428Z,18.04
2022-08-24T15:42:21.418Z,18.13
2022-08-24T15:44:50.044Z,18.02
2022-08-24T15:47:35.322Z,18.90
2022-08-24T15:50:27.204Z,18.06
2022-08-24T15:53:14.170Z,18.69
2022-08-24T15:55:43.513Z,19.04
2022-08-24T15:58:34.444Z,18.89
2022-08-24T16:01:38.264Z,19.10
2022-08-24T16:04:13.918Z,19.49
2022-08-24T16:06:46.855Z,18.95
2022-08-24T16:09:22.426Z,19.58
2022-08-24T16:12:17.433Z,19.05
2022-08-24T16:14:47.647Z,19.20
2022-08-24T16:17:26.615Z,19.25
2022-08-24T16:19:59.187Z,19.77
2022-08-24T16:22:33.847Z,19.44
2022-08-24T16:25:23.929Z,19.76
2022-08-24T16:27:56.562Z,19.70
2022-08-24T16:30:28.089Z,20.01
2022-08-24T16:32:56.960Z,20.34
2022-08-24T16:35:25.019Z,20.02
2022-08-24T16:37:52.788Z,19.67
2022-08-24T16:40:19.527Z,19.90
2022-08-24T16:42:46.221Z,20.02
2022-08-24T16:45:18.279Z,20.66
2022-08-24T16:47:46.934Z,20.27
2022-08-24T16:50:16.815Z,21.08
2022-08-24T16:52:43.515Z,20.39
2022-08-24T16:55:10.394Z,20.30
2022-08-24T16:57:41.093Z,21.73
2022-08-24T17:00:10.914Z,21.51
2022-08-24T17:02:37.692Z,20.84
2022-08-24T17:05:04.898Z,21.50
2022-08-24T17:07:32.130Z,21.34
2022-08-24T17:10:01.188Z,21.51
2022-08-24T17:12:28.017Z,21.54
2022-08-24T17:14:54.912Z,21.57
2022-08-24T17:17:24.283Z,21.76
2022-08-24T17:19:53.369Z,22.07
2022-08-24T17:22:20.824Z,21.98
2022-08-24T17:24:47.477Z,22.17
2022-08-24T17:27:14.525Z,22.21
2022-08-24T17:29:43.307Z,22.20
2022-08-24T17:32:10.200Z,22.20
2022-08-24T17:34:36.997Z,22.06
2022-08-24T17:37:03.930Z,22.19
2022-08-24T17:39:30.937Z,22.33
2022-08-24T17:41:58.712Z,22.32
2022-08-24T17:44:27.554Z,22.53
2022-08-24T17:46:57.795Z,23.57
2022-08-24T17:49:25.711Z,23.79
2022-08-24T17:51:53.637Z,24.18
2022-08-24T17:54:20.173Z,23.84
2022-08-24T17:56:48.720Z,24.15
2022-08-24T17:59:24.754Z,24.88
2022-08-24T18:02:17.625Z,24.06
2022-08-24T18:04:44.350Z,23.98
2022-08-24T18:07:16.680Z,23.83
2022-08-24T18:10:00.293Z,23.96
2022-08-24T18:12:27.314Z,24.69
2022-08-24T18:14:54.145Z,24.30
2022-08-24T18:17:34.600Z,24.40
2022-08-24T18:20:01.212Z,23.75
2022-08-24T18:22:27.858Z,25.43
2022-08-24T18:24:54.600Z,25.33
2022-08-24T18:27:26.316Z,25.24
2022-08-24T18:29:57.758Z,25.66
2022-08-24T18:32:30.087Z,25.82
2022-08-24T18:34:57.966Z,25.95
2022-08-24T18:37:25.045Z,25.47
2022-08-24T18:39:54.156Z,25.47
2022-08-24T18:42:21.670Z,26.05
2022-08-24T18:44:48.571Z,25.87
2022-08-24T18:47:15.550Z,26.18
2022-08-24T18:49:42.103Z,26.51
2022-08-24T18:52:10.068Z,26.54
2022-08-24T18:54:41.362Z,26.99
2022-08-24T18:57:08.754Z,26.86
2022-08-24T18:59:36.010Z,26.90
2022-08-24T19:02:31.891Z,26.97
2022-08-24T19:05:15.301Z,27.64
2022-08-24T19:07:44.750Z,28.30
2022-08-24T19:10:15.441Z,28.06
2022-08-24T19:12:46.618Z,28.02
2022-08-24T19:15:32.109Z,27.98
2022-08-24T19:18:00.803Z,27.93
2022-08-24T19:20:27.484Z,28.55
2022-08-24T19:23:00.695Z,28.38
2022-08-24T19:25:27.992Z,27.75
2022-08-24T19:27:58.549Z,28.38
2022-08-24T19:30:27.914Z,29.25
2022-08-24T19:32:58.460Z,29.48
2022-08-24T19:35:25.133Z,30.18
2022-08-24T19:37:51.954Z,29.87
2022-08-24T19:40:20.966Z,29.81
2022-08-24T19:42:50.812Z,29.70
2022-08-24T19:45:42.663Z,30.46
2022-08-24T19:48:10.227Z,29.34
2022-08-24T19:50:37.213Z,28.89
2022-08-24T19:53:05.270Z,29.27
2022-08-24T19:55:32.623Z,29.44
2022-08-24T19:58:26.795Z,29.49
2022-08-24T20:01:05.781Z,29.93
2022-08-24T20:03:32.420Z,30.08
2022-08-24T20:05:58.998Z,30.04
2022-08-24T20:08:25.602Z,29.70
2022-08-24T20:10:55.984Z,29.51
2022-08-24T20:13:22.590Z,29.30
2022-08-24T20:15:49.334Z,29.32
2022-08-24T20:18:16.283Z,29.65
2022-08-24T20:20:43.262Z,29.44
2022-08-24T20:23:09.811Z,29.95
2022-08-24T20:25:37.403Z,29.73
2022-08-24T20:28:28.790Z,30.27
2022-08-24T20:30:52.105Z,30.16
2022-08-24T20:33:21.097Z,30.23
2022-08-24T20:35:48.402Z,30.14
2022-08-24T20:38:17.005Z,30.51
2022-08-24T20:40:43.882Z,30.99
2022-08-24T20:43:12.999Z,30.89
2022-08-24T20:45:41.636Z,31.23
2022-08-24T20:48:11.895Z,31.08
2022-08-24T20:50:38.983Z,31.19
2022-08-24T20:53:06.163Z,31.49
2022-08-24T20:55:32.955Z,31.47
2022-08-24T20:58:03.159Z,31.35
2022-08-24T21:00:30.173Z,31.79
2022-08-24T21:02:58.119Z,31.28
2022-08-24T21:05:25.217Z,30.84
2022-08-24T21:07:52.040Z,30.76
2022-08-24T21:10:21.437Z,30.25
2022-08-24T21:12:51.945Z,31.09
2022-08-24T21:15:18.894Z,31.71
2022-08-24T21:17:45.659Z,31.33
2022-08-24T21:20:14.813Z,31.29
2022-08-24T21:22:41.459Z,31.09
2022-08-24T21:25:09.981Z,31.43
2022-08-24T21:27:38.429Z,30.75
2022-08-24T21:30:09.409Z,30.55
2022-08-24T21:32:54.493Z,30.65
2022-08-24T21:35:21.721Z,31.46
2022-08-24T21:37:50.099Z,31.22
2022-08-24T21:40:16.766Z,31.16
2022-08-24T21:42:43.317Z,30.97
2022-08-24T21:45:10.512Z,30.54
2022-08-24T21:47:37.295Z,31.04
2022-08-24T21:50:05.057Z,30.65
2022-08-24T21:52:31.782Z,30.91
2022-08-24T21:54:59.394Z,30.80
2022-08-24T21:57:27.586Z,31.26
2022-08-24T21:59:54.249Z,31.51
2022-08-24T22:02:20.861Z,31.20
2022-08-24T22:04:56.206Z,31.46
2022-08-24T22:07:24.263Z,31.04
2022-08-24T22:09:50.910Z,31.32
2022-08-24T22:12:18.180Z,31.21
2022-08-24T22:14:44.911Z,31.47
2022-08-24T22:17:11.629Z,31.80
2022-08-24T22:19:38.196Z,31.81
2022-08-24T22:22:05.197Z,31.73
2022-08-24T22:24:31.851Z,31.21
2022-08-24T22:26:58.430Z,31.40
2022-08-24T22:29:24.944Z,31.89
2022-08-24T22:31:52.025Z,31.91
2022-08-24T22:34:20.735Z,31.78
2022-08-24T22:36:48.327Z,32.04
2022-08-24T22:39:14.935Z,32.10
2022-08-24T22:41:41.609Z,32.28
2022-08-24T22:44:20.863Z,31.75
2022-08-24T22:46:56.847Z,31.83
2022-08-24T22:49:25.983Z,32.01
2022-08-24T22:51:52.797Z,31.95
2022-08-24T22:54:21.293Z,31.94
2022-08-24T22:56:51.662Z,32.05
2022-08-24T22:59:23.983Z,32.71
2022-08-24T23:01:52.327Z,32.15
2022-08-24T23:04:23.316Z,32.42
2022-08-24T23:06:50.803Z,32.55
2022-08-24T23:09:18.084Z,32.03
2022-08-24T23:11:45.579Z,32.34
2022-08-24T23:14:13.542Z,32.73
2022-08-24T23:16:44.853Z,32.56
2022-08-24T23:19:30.189Z,33.40
2022-08-24T23:21:56.881Z,33.51
2022-08-24T23:24:23.681Z,33.54
2022-08-24T23:26:50.360Z,33.64
2022-08-24T23:29:17.070Z,33.20
2022-08-24T23:31:44.829Z,33.66
2022-08-24T23:34:11.652Z,33.54
2022-08-24T23:36:38.498Z,34.20
2022-08-24T23:39:06.830Z,34.35
2022-08-24T23:41:35.804Z,34.03
2022-08-24T23:44:05.458Z,34.00
2022-08-24T23:46:32.111Z,34.30
2022-08-24T23:49:03.262Z,34.05
2022-08-24T23:51:30.424Z,34.35
2022-08-24T23:53:57.578Z,34.14
2022-08-24T23:56:31.632Z,33.63
2022-08-24T23:59:01.921Z,34.37
